createdAt,value
2023-02-05T00:01:16.543Z,2.75
2023-02-05T00:03:49.788Z,3.10
2023-02-05T00:06:22.286Z,2.90
2023-02-05T00:09:09.895Z,2.70
2023-02-05T00:11:42.244Z,3.02
2023-02-05T00:14:14.714Z,2.70
2023-02-05T00:16:48.201Z,2.92
2023-02-05T00:19:20.976Z,3.20
2023-02-05T00:21:53.562Z,2.80
2023-02-05T00:24:26.011Z,2.92
2023-02-05T00:26:58.293Z,3.02
2023-02-05T00:29:31.611Z,3.05
2023-02-05T00:32:05.488Z,2.62
2023-02-05T00:34:37.946Z,2.80
2023-02-05T00:37:10.446Z,3.40
2023-02-05T00:39:42.943Z,3.00
2023-02-05T00:42:15.387Z,3.42
2023-02-05T00:44:48.185Z,3.00
2023-02-05T00:47:20.609Z,3.15
2023-02-05T00:49:53.267Z,2.83
2023-02-05T00:52:25.696Z,3.05
2023-02-05T00:54:58.470Z,2.98
2023-02-05T00:57:30.955Z,3.10
2023-02-05T01:00:03.367Z,2.83
2023-02-05T01:02:36.186Z,2.95
2023-02-05T01:05:09.634Z,2.60
2023-02-05T01:07:43.270Z,3.08
2023-02-05T01:10:16.051Z,2.92
2023-02-05T01:12:50.542Z,2.47
2023-02-05T01:15:23.310Z,2.98
2023-02-05T01:17:55.939Z,3.02
2023-02-05T01:20:29.064Z,2.70
2023-02-05T01:23:01.509Z,3.00
2023-02-05T01:25:35.311Z,3.22
2023-02-05T01:28:08.223Z,3.20
2023-02-05T01:30:41.344Z,2.67
2023-02-05T01:33:14.747Z,3.03
2023-02-05T01:35:47.437Z,3.00
2023-02-05T01:38:20.015Z,2.85
2023-02-05T01:40:52.726Z,2.98
2023-02-05T01:43:25.403Z,3.02
2023-02-05T01:46:24.277Z,3.40
2023-02-05T01:48:57.005Z,3.20
2023-02-05T01:51:31.309Z,3.12
2023-02-05T01:54:03.955Z,2.95
2023-02-05T01:56:50.245Z,2.85
2023-02-05T01:59:25.763Z,3.42
2023-02-05T02:01:58.373Z,3.55
2023-02-05T02:04:40.735Z,3.17
2023-02-05T02:07:15.905Z,2.87
2023-02-05T02:09:48.531Z,3.33
2023-02-05T02:12:25.924Z,3.37
2023-02-05T02:15:10.277Z,3.02
2023-02-05T02:17:44.350Z,3.83
2023-02-05T02:20:26.418Z,3.33
2023-02-05T02:23:05.561Z,2.85
2023-02-05T02:26:01.049Z,3.50
2023-02-05T02:28:53.371Z,3.45
2023-02-05T02:31:36.327Z,3.65
2023-02-05T02:34:25.860Z,3.47
2023-02-05T02:37:15.888Z,3.02
2023-02-05T02:39:59.057Z,3.12
2023-02-05T02:42:42.256Z,4.35
2023-02-05T02:45:14.917Z,6.22
2023-02-05T02:47:52.537Z,3.40
2023-02-05T02:50:33.253Z,3.62
2023-02-05T02:53:20.535Z,3.52
2023-02-05T02:55:53.370Z,3.40
2023-02-05T02:58:31.376Z,3.42
2023-02-05T03:01:04.902Z,3.50
2023-02-05T03:03:43.563Z,3.70
2023-02-05T03:06:16.819Z,3.77
2023-02-05T03:09:15.833Z,3.10
2023-02-05T03:11:49.151Z,3.40
2023-02-05T03:14:23.738Z,3.40
2023-02-05T03:16:56.524Z,3.40
2023-02-05T03:19:29.337Z,3.60
2023-02-05T03:22:05.657Z,3.55
2023-02-05T03:24:38.828Z,3.47
2023-02-05T03:27:12.081Z,3.57
2023-02-05T03:29:47.693Z,4.03
2023-02-05T03:32:58.449Z,3.70
2023-02-05T03:35:54.968Z,4.53
2023-02-05T03:39:01.903Z,3.47
2023-02-05T03:42:19.530Z,3.77
2023-02-05T03:45:17.985Z,3.72
2023-02-05T03:48:26.109Z,4.42
2023-02-05T03:51:24.255Z,3.72
2023-02-05T03:54:38.926Z,3.67
2023-02-05T04:00:02.738Z,4.30
2023-02-05T04:05:09.326Z,4.60
2023-02-05T04:07:43.585Z,3.95
2023-02-05T04:10:17.326Z,4.58
2023-02-05T04:12:51.625Z,4.90
2023-02-05T04:15:24.767Z,4.58
2023-02-05T04:17:59.509Z,4.55
2023-02-05T04:20:33.581Z,4.62
2023-02-05T04:23:06.172Z,4.60
2023-02-05T04:25:40.682Z,4.50
2023-02-05T04:28:14.674Z,3.87
2023-02-05T04:30:48.227Z,4.92
2023-02-05T04:33:21.679Z,5.37
2023-02-05T04:35:56.004Z,3.92
2023-02-05T04:38:28.869Z,6.03
2023-02-05T04:41:01.534Z,4.70
2023-02-05T04:43:33.986Z,5.08
2023-02-05T04:46:11.280Z,6.00
2023-02-05T04:48:44.273Z,5.10
2023-02-05T04:51:17.436Z,5.40
2023-02-05T04:53:50.136Z,5.35
2023-02-05T04:56:22.713Z,5.35
2023-02-05T04:58:55.322Z,6.08
2023-02-05T05:01:27.900Z,5.37
2023-02-05T05:04:00.946Z,5.72
2023-02-05T05:06:34.178Z,5.45
2023-02-05T05:09:06.882Z,5.33
2023-02-05T05:11:40.650Z,5.90
2023-02-05T05:14:13.097Z,6.15
2023-02-05T05:16:45.462Z,5.50
2023-02-05T05:19:18.201Z,6.50
2023-02-05T05:21:50.650Z,6.12
2023-02-05T05:24:23.196Z,6.25
2023-02-05T05:26:55.777Z,6.70
2023-02-05T05:29:28.188Z,6.42
2023-02-05T05:32:00.706Z,6.50
2023-02-05T05:34:33.624Z,5.60
2023-02-05T05:37:06.092Z,5.80
2023-02-05T05:39:57.003Z,6.67
2023-02-05T05:42:47.450Z,6.28
2023-02-05T05:45:20.145Z,5.55
2023-02-05T05:47:53.055Z,6.03
2023-02-05T05:50:25.602Z,5.72
2023-02-05T05:52:59.708Z,5.72
2023-02-05T05:55:32.897Z,5.80
2023-02-05T05:58:07.027Z,6.10
2023-02-05T06:00:40.756Z,5.37
2023-02-05T06:03:13.228Z,6.62
2023-02-05T06:05:45.744Z,6.67
2023-02-05T06:08:18.675Z,5.95
2023-02-05T06:10:51.032Z,5.85
2023-02-05T06:13:23.476Z,6.97
2023-02-05T06:15:56.570Z,6.62
2023-02-05T06:18:29.787Z,5.78
2023-02-05T06:21:03.760Z,6.80
2023-02-05T06:23:36.744Z,6.40
2023-02-05T06:26:09.273Z,6.70
2023-02-05T06:28:41.706Z,7.28
2023-02-05T06:31:14.892Z,6.20
2023-02-05T06:33:47.489Z,6.30
2023-02-05T06:36:20.218Z,7.37
2023-02-05T06:38:53.326Z,6.35
2023-02-05T06:41:26.263Z,8.08
2023-02-05T06:43:59.292Z,7.03
2023-02-05T06:46:32.195Z,7.10
2023-02-05T06:49:05.425Z,6.30
2023-02-05T06:51:38.062Z,6.60
2023-02-05T06:54:10.472Z,7.45
2023-02-05T06:56:42.960Z,7.00
2023-02-05T06:59:16.405Z,7.33
2023-02-05T07:01:49.018Z,7.20
2023-02-05T07:04:21.517Z,7.62
2023-02-05T07:06:58.825Z,7.50
2023-02-05T07:09:31.522Z,7.33
2023-02-05T07:12:04.253Z,7.47
2023-02-05T07:14:41.100Z,6.87
2023-02-05T07:17:13.539Z,7.20
2023-02-05T07:19:47.375Z,7.75
2023-02-05T07:22:20.057Z,8.15
2023-02-05T07:24:53.235Z,7.35
2023-02-05T07:27:25.863Z,7.17
2023-02-05T07:30:00.285Z,6.42
2023-02-05T07:32:33.532Z,7.65
2023-02-05T07:35:06.683Z,7.92
2023-02-05T07:37:39.657Z,8.08
2023-02-05T07:40:14.278Z,7.15
2023-02-05T07:42:46.629Z,7.03
2023-02-05T07:45:19.382Z,7.83
2023-02-05T07:47:53.993Z,7.37
2023-02-05T07:52:58.369Z,6.90
2023-02-05T07:55:30.871Z,7.53
2023-02-05T07:58:03.583Z,8.28
2023-02-05T08:00:36.648Z,7.12
2023-02-05T08:03:09.283Z,7.35
2023-02-05T08:05:42.414Z,7.62
2023-02-05T08:08:14.835Z,7.80
2023-02-05T08:10:47.400Z,7.58
2023-02-05T08:13:37.000Z,7.47
2023-02-05T08:16:11.730Z,7.28
2023-02-05T08:18:44.404Z,6.85
2023-02-05T08:21:17.916Z,7.47
2023-02-05T08:23:50.580Z,7.53
2023-02-05T08:26:23.384Z,8.10
2023-02-05T08:28:57.113Z,7.95
2023-02-05T08:31:29.662Z,7.70
2023-02-05T08:34:02.404Z,7.28
2023-02-05T08:36:35.781Z,7.20
2023-02-05T08:39:08.399Z,6.72
2023-02-05T08:41:41.035Z,7.05
2023-02-05T08:44:13.611Z,7.45
2023-02-05T08:46:50.140Z,6.90
2023-02-05T08:49:29.691Z,7.40
2023-02-05T08:52:02.984Z,6.97
2023-02-05T08:54:35.687Z,7.15
2023-02-05T08:57:08.239Z,7.45
2023-02-05T08:59:40.694Z,7.55
2023-02-05T09:02:17.918Z,7.08
2023-02-05T09:04:54.473Z,8.05
2023-02-05T09:09:56.621Z,6.70
2023-02-05T09:12:29.539Z,7.10
2023-02-05T09:15:01.987Z,6.95
2023-02-05T09:17:35.402Z,7.65
2023-02-05T09:20:27.495Z,6.28
2023-02-05T09:23:00.301Z,6.40
2023-02-05T09:25:34.729Z,7.80
2023-02-05T09:30:43.694Z,7.25
2023-02-05T09:33:16.672Z,8.23
2023-02-05T09:35:49.025Z,7.10
2023-02-05T09:38:21.815Z,6.87
2023-02-05T09:41:09.740Z,7.58
2023-02-05T09:44:10.792Z,8.03
2023-02-05T09:47:10.510Z,7.15
2023-02-05T09:49:56.394Z,7.45
2023-02-05T09:52:51.313Z,6.78
2023-02-05T09:55:27.823Z,7.10
2023-02-05T09:58:18.632Z,7.72
2023-02-05T10:00:59.621Z,7.03
2023-02-05T10:03:45.311Z,7.58
2023-02-05T10:06:59.154Z,6.83
2023-02-05T10:09:36.530Z,8.38
2023-02-05T10:12:41.834Z,6.75
2023-02-05T10:15:41.472Z,7.55
2023-02-05T10:18:53.119Z,6.97
2023-02-05T10:21:59.035Z,8.18
2023-02-05T10:24:59.712Z,7.97
2023-02-05T10:27:40.504Z,7.17
2023-02-05T10:30:22.692Z,7.00
2023-02-05T10:33:09.648Z,7.90
2023-02-05T10:36:02.526Z,7.87
2023-02-05T10:38:39.984Z,7.53
2023-02-05T10:41:40.338Z,7.70
2023-02-05T10:44:38.604Z,7.55
2023-02-05T10:47:19.246Z,8.10
2023-02-05T10:50:10.506Z,7.08
2023-02-05T10:52:44.215Z,7.22
2023-02-05T10:55:17.199Z,7.67
2023-02-05T10:57:49.621Z,7.83
2023-02-05T11:00:23.838Z,7.83
2023-02-05T11:05:44.162Z,6.97
2023-02-05T11:08:39.629Z,7.42
2023-02-05T11:11:22.338Z,7.67
2023-02-05T11:13:59.126Z,6.83
2023-02-05T11:16:44.262Z,7.47
2023-02-05T11:19:29.091Z,7.35
2023-02-05T11:22:04.695Z,7.85
2023-02-05T11:24:41.022Z,7.28
2023-02-05T11:27:23.601Z,6.65
2023-02-05T11:30:00.054Z,7.95
2023-02-05T11:32:39.908Z,7.40
2023-02-05T11:35:22.374Z,7.33
2023-02-05T11:38:09.165Z,8.05
2023-02-05T11:40:41.575Z,7.15
2023-02-05T11:43:24.328Z,7.35
2023-02-05T11:45:58.606Z,7.65
2023-02-05T11:48:40.459Z,7.37
2023-02-05T11:51:16.632Z,7.10
2023-02-05T11:54:11.789Z,8.23
2023-02-05T11:56:47.301Z,8.43
2023-02-05T11:59:24.381Z,8.03
2023-02-05T12:01:56.881Z,7.55
2023-02-05T12:04:29.410Z,7.67
2023-02-05T12:07:09.086Z,7.95
2023-02-05T12:09:41.730Z,7.40
2023-02-05T12:12:20.631Z,6.80
2023-02-05T12:15:18.291Z,6.92
2023-02-05T12:18:19.289Z,8.03
2023-02-05T12:21:06.751Z,7.87
2023-02-05T12:24:02.670Z,7.92
2023-02-05T12:26:41.572Z,7.75
2023-02-05T12:29:40.193Z,8.00
2023-02-05T12:32:29.118Z,7.40
2023-02-05T12:35:45.483Z,7.15
2023-02-05T12:38:57.621Z,7.72
2023-02-05T12:42:01.141Z,7.78
2023-02-05T12:44:55.509Z,8.85
2023-02-05T12:47:44.703Z,7.50
2023-02-05T12:50:48.508Z,8.45
2023-02-05T12:53:53.252Z,7.58
2023-02-05T12:56:52.733Z,7.03
2023-02-05T12:59:37.042Z,7.37
2023-02-05T13:02:38.324Z,7.75
2023-02-05T13:05:34.048Z,7.80
2023-02-05T13:08:11.204Z,7.10
2023-02-05T13:10:56.143Z,7.85
2023-02-05T13:13:33.913Z,7.15
2023-02-05T13:16:10.976Z,8.03
2023-02-05T13:18:54.412Z,7.97
2023-02-05T13:21:44.589Z,8.08
2023-02-05T13:25:09.406Z,7.37
2023-02-05T13:28:05.001Z,7.85
2023-02-05T13:30:44.842Z,7.87
2023-02-05T13:33:17.432Z,7.90
2023-02-05T13:36:29.831Z,7.45
2023-02-05T13:39:52.173Z,7.62
2023-02-05T13:42:41.454Z,7.87
2023-02-05T13:45:28.866Z,6.85
2023-02-05T13:48:20.761Z,7.72
2023-02-05T13:51:29.021Z,8.15
2023-02-05T13:54:41.307Z,8.00
2023-02-05T13:57:39.753Z,7.95
2023-02-05T14:00:14.087Z,9.00
2023-02-05T14:02:50.492Z,8.03
2023-02-05T14:05:32.352Z,8.25
2023-02-05T14:08:05.249Z,8.90
2023-02-05T14:10:45.133Z,8.05
2023-02-05T14:13:31.881Z,9.10
2023-02-05T14:16:31.749Z,8.70
2023-02-05T14:19:09.055Z,7.55
2023-02-05T14:22:13.689Z,8.60
2023-02-05T14:24:49.447Z,8.03
2023-02-05T14:27:36.227Z,7.83
2023-02-05T14:30:39.147Z,8.00
2023-02-05T14:33:36.215Z,10.68
2023-02-05T14:36:23.024Z,8.60
2023-02-05T14:39:02.046Z,8.68
2023-02-05T14:41:47.575Z,8.13
2023-02-05T14:44:27.234Z,8.13
2023-02-05T14:47:25.965Z,8.00
2023-02-05T14:50:10.291Z,9.10
2023-02-05T14:53:02.855Z,9.18
2023-02-05T14:55:43.778Z,8.83
2023-02-05T14:58:27.287Z,8.78
2023-02-05T15:01:32.520Z,8.80
2023-02-05T15:04:05.391Z,9.13
2023-02-05T15:06:41.799Z,9.13
2023-02-05T15:09:19.325Z,8.65
2023-02-05T15:12:20.878Z,9.03
2023-02-05T15:14:54.689Z,9.05
2023-02-05T15:17:37.883Z,9.55
2023-02-05T15:20:42.634Z,9.58
2023-02-05T15:23:39.159Z,8.80
2023-02-05T15:26:31.808Z,8.73
2023-02-05T15:29:32.406Z,9.00
2023-02-05T15:32:29.898Z,9.05
2023-02-05T15:35:35.176Z,9.28
2023-02-05T15:38:36.021Z,9.05
2023-02-05T15:41:08.798Z,8.85
2023-02-05T15:43:41.955Z,8.35
2023-02-05T15:46:15.186Z,9.68
2023-02-05T15:48:47.992Z,8.50
2023-02-05T15:51:33.897Z,9.05
2023-02-05T15:54:08.335Z,9.10
2023-02-05T15:56:45.368Z,8.43
2023-02-05T15:59:25.107Z,9.20
2023-02-05T16:02:11.373Z,9.10
2023-02-05T16:04:44.201Z,8.78
2023-02-05T16:07:26.061Z,9.15
2023-02-05T16:10:01.088Z,8.65
2023-02-05T16:12:33.647Z,9.10
2023-02-05T16:15:07.954Z,8.93
2023-02-05T16:17:46.300Z,8.65
2023-02-05T16:20:27.946Z,8.88
2023-02-05T16:23:17.252Z,8.90
2023-02-05T16:26:04.209Z,9.20
2023-02-05T16:28:42.292Z,9.43
2023-02-05T16:31:21.081Z,9.25
2023-02-05T16:34:19.834Z,8.85
2023-02-05T16:36:53.501Z,9.78
2023-02-05T16:39:54.746Z,8.98
2023-02-05T16:42:44.142Z,9.40
2023-02-05T16:45:25.181Z,9.53
2023-02-05T16:48:22.288Z,8.98
2023-02-05T16:50:56.405Z,8.00
2023-02-05T16:53:31.440Z,9.60
2023-02-05T16:56:22.864Z,9.25
2023-02-05T16:58:58.711Z,8.73
2023-02-05T17:01:41.646Z,8.73
2023-02-05T17:04:29.964Z,9.00
2023-02-05T17:07:04.227Z,8.28
2023-02-05T17:09:38.754Z,8.95
2023-02-05T17:12:36.367Z,8.95
2023-02-05T17:15:22.692Z,8.63
2023-02-05T17:17:57.270Z,8.68
2023-02-05T17:23:09.463Z,8.08
2023-02-05T17:25:57.333Z,8.03
2023-02-05T17:28:30.126Z,6.75
2023-02-05T17:31:02.660Z,6.78
2023-02-05T17:33:35.837Z,7.37
2023-02-05T17:36:12.041Z,7.10
2023-02-05T17:38:45.468Z,8.08
2023-02-05T17:41:39.323Z,6.67
2023-02-05T17:44:15.984Z,8.10
2023-02-05T17:46:48.497Z,8.38
2023-02-05T17:49:21.043Z,8.10
2023-02-05T17:51:53.648Z,7.65
2023-02-05T17:54:26.825Z,8.03
2023-02-05T17:57:03.031Z,7.97
2023-02-05T17:59:35.575Z,8.38
2023-02-05T18:02:08.105Z,7.85
2023-02-05T18:04:40.766Z,8.78
2023-02-05T18:07:33.147Z,7.33
2023-02-05T18:10:07.071Z,7.83
2023-02-05T18:12:39.636Z,7.47
2023-02-05T18:15:12.236Z,7.55
2023-02-05T18:17:45.322Z,7.03
2023-02-05T18:20:21.064Z,7.85
2023-02-05T18:22:53.935Z,8.45
2023-02-05T18:25:26.779Z,8.55
2023-02-05T18:27:59.923Z,7.92
2023-02-05T18:30:32.689Z,7.28
2023-02-05T18:33:07.361Z,6.95
2023-02-05T18:35:40.918Z,7.05
2023-02-05T18:38:13.496Z,7.58
2023-02-05T18:40:45.922Z,7.53
2023-02-05T18:43:19.345Z,7.45
2023-02-05T18:45:52.338Z,6.83
2023-02-05T18:48:24.831Z,6.65
2023-02-05T18:50:57.895Z,7.55
2023-02-05T18:53:30.323Z,7.42
2023-02-05T18:56:06.803Z,7.25
2023-02-05T18:58:39.775Z,6.97
2023-02-05T19:01:17.198Z,7.17
2023-02-05T19:03:52.886Z,6.87
2023-02-05T19:06:36.015Z,6.33
2023-02-05T19:09:08.822Z,6.15
2023-02-05T19:11:41.975Z,5.83
2023-02-05T19:14:16.346Z,6.47
2023-02-05T19:16:49.214Z,5.95
2023-02-05T19:19:24.713Z,6.53
2023-02-05T19:22:02.218Z,6.72
2023-02-05T19:24:36.402Z,6.92
2023-02-05T19:27:10.163Z,7.58
2023-02-05T19:29:42.747Z,6.50
2023-02-05T19:32:15.835Z,7.05
2023-02-05T19:34:48.238Z,7.85
2023-02-05T19:37:20.651Z,7.15
2023-02-05T19:39:53.151Z,7.20
2023-02-05T19:42:27.362Z,7.33
2023-02-05T19:47:31.259Z,7.58
2023-02-05T19:50:04.116Z,6.20
2023-02-05T19:52:36.860Z,6.47
2023-02-05T19:55:09.378Z,6.95
2023-02-05T19:57:43.067Z,7.15
2023-02-05T20:00:16.507Z,6.55
2023-02-05T20:02:49.560Z,6.50
2023-02-05T20:05:22.914Z,6.58
2023-02-05T20:07:55.519Z,6.53
2023-02-05T20:10:28.026Z,6.25
2023-02-05T20:13:01.334Z,6.87
2023-02-05T20:15:36.922Z,7.08
2023-02-05T20:18:09.486Z,6.50
2023-02-05T20:20:42.380Z,6.40
2023-02-05T20:23:15.171Z,6.75
2023-02-05T20:26:08.709Z,6.30
2023-02-05T20:29:00.708Z,7.10
2023-02-05T20:34:44.865Z,6.42
2023-02-05T20:37:19.565Z,6.17
2023-02-05T20:42:24.032Z,6.47
2023-02-05T20:44:57.301Z,6.75
2023-02-05T20:47:29.855Z,6.90
2023-02-05T20:50:02.728Z,6.28
2023-02-05T20:52:35.708Z,6.22
2023-02-05T20:55:08.933Z,6.08
2023-02-05T20:57:43.109Z,6.35
2023-02-05T21:00:16.244Z,6.40
2023-02-05T21:02:48.684Z,6.65
2023-02-05T21:05:20.999Z,6.83
2023-02-05T21:07:53.844Z,6.45
2023-02-05T21:10:26.812Z,7.28
2023-02-05T21:12:59.408Z,6.08
2023-02-05T21:15:33.774Z,7.40
2023-02-05T21:20:38.703Z,7.90
2023-02-05T21:23:11.209Z,7.33
2023-02-05T21:25:43.894Z,6.90
2023-02-05T21:28:18.772Z,8.33
2023-02-05T21:30:51.393Z,7.90
2023-02-05T21:33:23.850Z,7.47
2023-02-05T21:35:56.837Z,6.62
2023-02-05T21:38:30.901Z,6.58
2023-02-05T21:41:09.315Z,7.33
2023-02-05T21:43:42.228Z,7.15
2023-02-05T21:46:15.085Z,7.87
2023-02-05T21:51:25.415Z,7.40
2023-02-05T21:54:00.257Z,8.75
2023-02-05T21:56:38.559Z,7.00
2023-02-05T21:59:12.403Z,8.18
2023-02-05T22:01:54.360Z,7.75
2023-02-05T22:04:26.871Z,8.55
2023-02-05T22:06:59.214Z,8.50
2023-02-05T22:09:31.683Z,7.53
2023-02-05T22:12:06.462Z,8.30
2023-02-05T22:14:38.959Z,8.43
2023-02-05T22:17:12.987Z,8.05
2023-02-05T22:19:45.986Z,7.50
2023-02-05T22:22:19.157Z,7.15
2023-02-05T22:24:52.277Z,7.60
2023-02-05T22:27:24.824Z,7.58
2023-02-05T22:29:57.397Z,7.00
2023-02-05T22:32:29.706Z,7.47
2023-02-05T22:35:02.447Z,7.85
2023-02-05T22:37:35.087Z,9.98
2023-02-05T22:40:09.208Z,9.03
2023-02-05T22:42:41.667Z,9.03
2023-02-05T22:45:14.808Z,7.45
2023-02-05T22:47:47.399Z,8.80
2023-02-05T22:50:21.163Z,7.12
2023-02-05T22:52:53.871Z,7.97
2023-02-05T22:55:26.259Z,7.67
2023-02-05T22:57:58.699Z,7.75
2023-02-05T23:00:43.389Z,7.67
2023-02-05T23:03:33.009Z,6.85
2023-02-05T23:06:17.348Z,7.85
2023-02-05T23:08:59.662Z,7.85
2023-02-05T23:11:34.116Z,7.90
2023-02-05T23:14:07.958Z,8.08
2023-02-05T23:16:43.513Z,7.47
2023-02-05T23:19:19.202Z,7.83
2023-02-05T23:21:52.092Z,8.68
2023-02-05T23:24:25.079Z,8.50
2023-02-05T23:26:57.688Z,8.28
2023-02-05T23:29:30.208Z,8.58
2023-02-05T23:32:02.715Z,7.92
2023-02-05T23:34:35.341Z,7.62
2023-02-05T23:37:07.855Z,8.20
2023-02-05T23:39:40.316Z,8.25
2023-02-05T23:42:12.942Z,8.40
2023-02-05T23:44:45.470Z,8.18
2023-02-05T23:47:17.924Z,8.28
2023-02-05T23:49:50.705Z,8.25
2023-02-05T23:52:23.433Z,8.55
2023-02-05T23:54:55.866Z,9.45
2023-02-05T23:57:28.881Z,8.60
